Time;durP1;ratioP1;P1;durP2;ratioP2;P2;SDS_P1;SDS_P2;PMS_P1;PMS_P2;Temp;Humidity;BMP_temperature;BMP_pressure;BME280_temperature;BME280_humidity;BME280_pressure;Samples;Min_cycle;Max_cycle;Signal;HPM_P1;HPM_P2
2022/04/06 00:01:27;;;;;;;6.73;6.10;;;11.00;99.90;;;;;;6159665;23;20501;-82
2022/04/06 00:03:54;;;;;;;6.93;6.20;;;11.00;99.90;;;;;;6162322;23;20407;-81
2022/04/06 00:06:21;;;;;;;8.67;6.03;;;11.00;99.90;;;;;;6173761;23;20438;-82
2022/04/06 00:08:49;;;;;;;6.97;6.37;;;11.00;99.90;;;;;;6176216;23;20413;-82
2022/04/06 00:11:16;;;;;;;6.67;6.07;;;11.00;99.90;;;;;;6178952;23;20423;-81
2022/04/06 00:13:43;;;;;;;6.80;6.10;;;11.00;99.90;;;;;;6182006;23;20442;-81
2022/04/06 00:16:09;;;;;;;7.40;6.70;;;11.00;99.90;;;;;;6179032;23;20486;-81
2022/04/06 00:18:36;;;;;;;7.40;6.70;;;11.00;99.90;;;;;;6179789;23;20383;-83
2022/04/06 00:21:03;;;;;;;6.90;6.20;;;11.00;99.90;;;;;;6179281;23;20507;-82
2022/04/06 00:23:29;;;;;;;7.90;7.10;;;11.00;99.90;;;;;;6175102;23;20391;-82
2022/04/06 00:26:23;;;;;;;7.20;6.50;;;11.00;99.90;;;;;;6183673;23;20418;-81
2022/04/06 00:28:50;;;;;;;6.67;6.03;;;11.00;99.90;;;;;;6183689;23;20405;-81
2022/04/06 00:31:17;;;;;;;6.90;6.20;;;11.00;99.90;;;;;;6178686;23;20462;-82
2022/04/06 00:33:44;;;;;;;7.07;6.50;;;11.00;99.90;;;;;;6161788;23;20413;-83
2022/04/06 00:36:10;;;;;;;7.03;6.43;;;11.00;99.90;;;;;;6175743;23;20404;-82
2022/04/06 00:38:37;;;;;;;6.47;5.87;;;11.00;99.90;;;;;;6162665;23;20411;-83
2022/04/06 00:41:04;;;;;;;6.87;6.27;;;11.00;99.90;;;;;;6157257;23;20427;-82
2022/04/06 00:43:32;;;;;;;9.03;5.60;;;11.00;99.90;;;;;;6156930;23;20418;-82
2022/04/06 00:45:59;;;;;;;7.20;6.60;;;11.00;99.90;;;;;;6157318;23;20405;-82
2022/04/06 00:48:25;;;;;;;6.67;6.17;;;11.00;99.90;;;;;;6165598;23;20748;-83
2022/04/06 00:50:52;;;;;;;6.10;5.57;;;11.10;99.90;;;;;;6164172;23;20411;-82
2022/04/06 00:53:19;;;;;;;6.90;6.30;;;11.10;99.90;;;;;;6166073;23;20403;-83
2022/04/06 00:55:46;;;;;;;6.53;6.03;;;11.10;99.90;;;;;;6182296;23;20398;-82
2022/04/06 00:58:13;;;;;;;6.90;6.30;;;11.10;99.90;;;;;;6171548;23;20881;-82
2022/04/06 01:00:41;;;;;;;6.40;5.80;;;11.10;99.90;;;;;;6178679;23;20390;-83
2022/04/06 01:03:07;;;;;;;6.20;5.60;;;11.20;99.90;;;;;;6173178;23;20443;-82
2022/04/06 01:05:34;;;;;;;5.83;5.23;;;11.10;99.90;;;;;;6165760;23;20735;-82
2022/04/06 01:08:01;;;;;;;6.30;5.70;;;11.10;99.90;;;;;;6169508;23;20803;-82
2022/04/06 01:10:29;;;;;;;6.50;5.90;;;11.10;99.90;;;;;;6169131;23;20413;-81
2022/04/06 01:12:56;;;;;;;6.30;5.70;;;11.10;99.90;;;;;;6159193;23;20480;-82
2022/04/06 01:15:24;;;;;;;6.43;5.93;;;11.10;99.90;;;;;;6164018;23;20738;-81
2022/04/06 01:17:52;;;;;;;7.53;5.53;;;11.10;99.90;;;;;;6165044;23;20443;-81
2022/04/06 01:20:19;;;;;;;6.43;5.83;;;11.10;99.90;;;;;;6159029;23;20399;-82
2022/04/06 01:22:47;;;;;;;7.60;5.90;;;11.20;99.90;;;;;;6157585;23;20452;-82
2022/04/06 01:25:14;;;;;;;5.87;5.47;;;11.10;99.90;;;;;;6159744;23;20405;-82
2022/04/06 01:27:41;;;;;;;6.73;6.13;;;11.20;99.90;;;;;;6161203;23;20407;-82
2022/04/06 01:30:09;;;;;;;6.47;5.87;;;11.20;99.90;;;;;;6160151;23;20408;-82
2022/04/06 01:32:36;;;;;;;5.57;5.13;;;11.10;99.90;;;;;;6158243;23;20437;-82
2022/04/06 01:35:04;;;;;;;5.70;5.30;;;11.10;99.90;;;;;;6168354;23;20418;-81
2022/04/06 01:37:32;;;;;;;7.77;5.80;;;11.10;99.90;;;;;;6182477;23;20396;-81
2022/04/06 01:40:03;;;;;;;6.20;5.60;;;11.00;99.90;;;;;;6182202;23;20387;-82
2022/04/06 01:42:29;;;;;;;5.97;5.37;;;11.10;99.90;;;;;;6160709;23;20529;-82
2022/04/06 01:44:56;;;;;;;6.70;6.20;;;11.00;99.90;;;;;;6176019;23;20409;-82
2022/04/06 01:47:23;;;;;;;5.80;5.30;;;11.00;99.90;;;;;;6182265;23;20453;-82
2022/04/06 01:52:35;;;;;;;6.40;5.80;;;11.10;99.90;;;;;;6172952;23;20410;-83
2022/04/06 01:55:05;;;;;;;6.30;5.80;;;11.10;99.90;;;;;;6177605;23;20403;-82
2022/04/06 01:57:33;;;;;;;6.90;6.30;;;11.10;99.90;;;;;;6171126;23;20392;-82
2022/04/06 02:00:01;;;;;;;6.50;5.90;;;11.10;99.90;;;;;;6162281;23;20399;-82
2022/04/06 02:02:31;;;;;;;6.53;5.93;;;11.10;99.90;;;;;;6157448;23;20445;-83
2022/04/06 02:04:59;;;;;;;6.13;5.67;;;11.10;99.90;;;;;;6156703;23;20397;-83
2022/04/06 02:07:26;;;;;;;6.20;5.60;;;11.10;99.90;;;;;;6157480;23;20905;-82
2022/04/06 02:09:53;;;;;;;7.00;6.40;;;11.20;99.90;;;;;;6158394;23;20418;-82
2022/04/06 02:12:22;;;;;;;6.67;6.07;;;11.20;99.90;;;;;;6177957;23;20415;-82
2022/04/06 02:14:49;;;;;;;6.60;6.00;;;11.20;99.90;;;;;;6176231;23;20505;-82
2022/04/06 02:17:16;;;;;;;7.20;6.10;;;11.20;99.90;;;;;;6160170;23;20775;-82
2022/04/06 02:19:43;;;;;;;6.40;5.80;;;11.20;99.90;;;;;;6168927;23;20410;-83
2022/04/06 02:22:09;;;;;;;6.27;5.67;;;11.20;99.90;;;;;;6155837;23;20454;-82
2022/04/06 02:24:37;;;;;;;6.60;5.93;;;11.20;99.90;;;;;;6157944;23;20407;-82
2022/04/06 02:27:06;;;;;;;5.90;5.40;;;11.20;99.90;;;;;;6158943;23;20403;-82
2022/04/06 02:29:34;;;;;;;6.80;6.17;;;11.20;99.90;;;;;;6166487;23;20407;-83
2022/04/06 02:32:01;;;;;;;7.50;6.80;;;11.20;99.90;;;;;;6163300;23;20434;-83
2022/04/06 02:34:28;;;;;;;6.73;6.13;;;11.10;99.90;;;;;;6160971;23;20407;-82
2022/04/06 02:36:55;;;;;;;6.47;5.90;;;11.10;99.90;;;;;;6181726;23;20470;-82
2022/04/06 02:39:21;;;;;;;7.37;6.70;;;11.20;99.90;;;;;;6170543;23;20928;-82
2022/04/06 02:41:48;;;;;;;7.37;6.87;;;11.20;99.90;;;;;;6177711;23;20494;-83
2022/04/06 02:44:15;;;;;;;6.80;6.27;;;11.20;99.90;;;;;;6166339;23;20414;-83
2022/04/06 02:46:44;;;;;;;6.80;6.30;;;11.20;99.90;;;;;;6169440;23;20442;-83
2022/04/06 02:49:10;;;;;;;6.80;6.20;;;11.20;99.90;;;;;;6180029;23;20417;-82
2022/04/06 02:51:37;;;;;;;6.70;6.00;;;11.20;99.90;;;;;;6166534;23;20434;-83
2022/04/06 02:54:04;;;;;;;6.23;5.63;;;11.20;99.90;;;;;;6171340;23;20403;-83
2022/04/06 02:56:31;;;;;;;7.30;6.03;;;11.10;99.90;;;;;;6179037;23;20397;-82
2022/04/06 02:58:58;;;;;;;7.13;6.43;;;11.10;99.90;;;;;;6178168;23;20413;-82
2022/04/06 03:01:25;;;;;;;7.07;6.37;;;11.10;99.90;;;;;;6174847;23;20496;-81
2022/04/06 03:03:53;;;;;;;6.40;5.80;;;11.10;99.90;;;;;;6163410;23;20442;-82
2022/04/06 03:06:20;;;;;;;6.20;5.60;;;11.10;99.90;;;;;;6159604;23;20404;-82
2022/04/06 03:08:47;;;;;;;7.87;6.03;;;11.10;99.90;;;;;;6158257;23;20403;-83
2022/04/06 03:11:13;;;;;;;6.33;5.57;;;11.10;99.90;;;;;;6170856;23;20438;-82
2022/04/06 03:13:40;;;;;;;7.20;6.50;;;11.10;99.90;;;;;;6180636;23;20403;-82
2022/04/06 03:16:07;;;;;;;8.40;6.00;;;11.10;99.90;;;;;;6174737;23;20403;-83
2022/04/06 03:18:34;;;;;;;7.57;6.87;;;11.00;99.90;;;;;;6167435;23;20426;-83
2022/04/06 03:21:03;;;;;;;7.37;6.60;;;11.00;99.90;;;;;;6163086;23;20446;-83
2022/04/06 03:23:29;;;;;;;7.13;6.43;;;11.00;99.90;;;;;;6160348;23;20418;-82
2022/04/06 03:25:56;;;;;;;7.33;6.63;;;11.00;99.90;;;;;;6158530;23;20405;-82
2022/04/06 03:28:23;;;;;;;6.20;5.70;;;11.00;99.90;;;;;;6158200;23;20396;-82
2022/04/06 03:30:50;;;;;;;7.20;6.27;;;11.00;99.90;;;;;;6157324;23;20398;-82
2022/04/06 03:33:16;;;;;;;7.13;6.53;;;11.00;99.90;;;;;;6158030;23;20407;-82
2022/04/06 03:35:43;;;;;;;7.90;6.57;;;11.00;99.90;;;;;;6157478;23;20417;-83
2022/04/06 03:38:11;;;;;;;6.53;5.80;;;11.10;99.90;;;;;;6157991;23;20415;-82
2022/04/06 03:40:38;;;;;;;6.67;6.00;;;11.10;99.90;;;;;;6157246;23;20407;-82
2022/04/06 03:43:05;;;;;;;7.70;7.00;;;11.10;99.90;;;;;;6175936;23;20429;-82
2022/04/06 03:45:31;;;;;;;6.77;6.27;;;11.10;99.90;;;;;;6172948;23;20406;-82
2022/04/06 03:47:58;;;;;;;6.77;6.03;;;11.00;99.90;;;;;;6157638;23;20458;-82
2022/04/06 03:50:25;;;;;;;7.30;6.60;;;11.00;99.90;;;;;;6170938;23;20395;-81
2022/04/06 03:52:51;;;;;;;6.90;6.20;;;11.10;99.90;;;;;;6173448;23;20430;-83
2022/04/06 03:55:19;;;;;;;8.20;6.80;;;11.10;99.90;;;;;;6173968;23;20394;-82
2022/04/06 03:57:46;;;;;;;7.50;6.70;;;11.00;99.90;;;;;;6182655;23;20418;-82
2022/04/06 04:00:14;;;;;;;6.70;6.10;;;11.00;99.90;;;;;;6182660;23;20382;-81
2022/04/06 04:02:41;;;;;;;6.90;6.30;;;11.00;99.90;;;;;;6181604;23;20442;-81
2022/04/06 04:05:09;;;;;;;10.43;7.93;;;11.00;99.90;;;;;;6171818;23;20407;-82
2022/04/06 04:07:37;;;;;;;8.53;7.63;;;11.00;99.90;;;;;;6157992;23;20494;-82
2022/04/06 04:10:06;;;;;;;9.70;7.30;;;11.00;99.90;;;;;;6157843;23;20415;-82
2022/04/06 04:12:34;;;;;;;9.60;8.03;;;11.00;99.90;;;;;;6159162;23;20450;-81
2022/04/06 04:15:01;;;;;;;7.53;6.77;;;11.00;99.90;;;;;;6159232;23;20407;-83
2022/04/06 04:17:28;;;;;;;7.80;7.07;;;11.10;99.90;;;;;;6161150;23;20820;-82
2022/04/06 04:19:54;;;;;;;8.13;6.97;;;11.00;99.90;;;;;;6159015;23;20407;-82
2022/04/06 04:22:22;;;;;;;7.80;6.73;;;11.00;99.90;;;;;;6160464;23;20489;-83
2022/04/06 04:24:48;;;;;;;7.53;6.67;;;11.00;99.90;;;;;;6160273;23;20406;-82
2022/04/06 04:27:15;;;;;;;7.33;6.63;;;11.00;99.90;;;;;;6161484;23;20866;-83
2022/04/06 04:29:43;;;;;;;8.03;7.03;;;11.00;99.90;;;;;;6163525;23;20439;-83
2022/04/06 04:32:11;;;;;;;7.70;7.00;;;11.00;99.90;;;;;;6162715;23;20434;-83
2022/04/06 04:34:37;;;;;;;7.70;7.00;;;11.10;99.90;;;;;;6183582;23;20406;-82
2022/04/06 04:37:04;;;;;;;7.30;6.63;;;11.00;99.90;;;;;;6183327;23;20505;-82
2022/04/06 04:39:31;;;;;;;7.07;6.37;;;11.00;99.90;;;;;;6182156;23;20386;-81
2022/04/06 04:41:58;;;;;;;6.77;6.17;;;11.00;99.90;;;;;;6176078;23;20411;-83
2022/04/06 04:44:25;;;;;;;7.50;6.90;;;11.00;99.90;;;;;;6182033;23;20596;-83
2022/04/06 04:46:55;;;;;;;6.87;6.27;;;11.10;99.90;;;;;;6168127;23;20415;-81
2022/04/06 04:49:22;;;;;;;7.30;6.33;;;11.10;99.90;;;;;;6157629;23;20443;-82
2022/04/06 04:51:49;;;;;;;7.87;7.03;;;11.10;99.90;;;;;;6169743;23;20422;-82
2022/04/06 04:54:16;;;;;;;6.20;5.60;;;11.10;99.90;;;;;;6178163;23;20403;-83
2022/04/06 04:56:43;;;;;;;6.30;5.70;;;11.00;99.90;;;;;;6159827;23;20410;-82
2022/04/06 04:59:10;;;;;;;6.80;6.20;;;11.10;99.90;;;;;;6173221;23;20420;-82
2022/04/06 05:01:36;;;;;;;8.53;7.70;;;11.10;99.90;;;;;;6175400;23;20426;-82
2022/04/06 05:04:05;;;;;;;7.30;6.70;;;11.10;99.90;;;;;;6177127;23;20462;-82
2022/04/06 05:06:32;;;;;;;7.50;5.73;;;11.10;99.90;;;;;;6166879;23;20399;-81
2022/04/06 05:08:58;;;;;;;9.20;6.40;;;11.10;99.90;;;;;;6158175;23;20411;-82
2022/04/06 05:11:25;;;;;;;9.27;6.57;;;11.10;99.90;;;;;;6158656;23;20445;-82
2022/04/06 05:13:52;;;;;;;6.70;6.10;;;11.10;99.90;;;;;;6160228;23;20886;-83
2022/04/06 05:16:18;;;;;;;7.67;5.97;;;11.20;99.90;;;;;;6158695;23;20381;-83
2022/04/06 05:18:45;;;;;;;7.60;6.40;;;11.20;99.90;;;;;;6168532;23;20429;-82
2022/04/06 05:21:13;;;;;;;8.10;6.87;;;11.20;99.90;;;;;;6158478;23;20430;-82
2022/04/06 05:23:40;;;;;;;7.47;6.50;;;11.30;99.90;;;;;;6156753;23;20434;-83
2022/04/06 05:26:07;;;;;;;8.30;6.40;;;11.20;99.90;;;;;;6156407;23;20415;-82
2022/04/06 05:28:33;;;;;;;10.90;6.60;;;11.20;99.90;;;;;;6156768;23;20411;-83
2022/04/06 05:31:00;;;;;;;8.70;6.30;;;11.30;99.90;;;;;;6158508;23;20437;-83
2022/04/06 05:33:27;;;;;;;9.27;7.50;;;11.30;99.90;;;;;;6171374;23;20735;-82
2022/04/06 05:35:54;;;;;;;12.90;7.73;;;11.30;99.90;;;;;;6160776;23;20751;-83
2022/04/06 05:38:22;;;;;;;9.57;7.17;;;11.40;99.90;;;;;;6157473;23;20407;-83
2022/04/06 05:40:48;;;;;;;13.77;7.30;;;11.40;99.90;;;;;;6157827;23;20465;-82
2022/04/06 05:43:15;;;;;;;11.20;6.93;;;11.40;99.90;;;;;;6157788;23;20438;-83
2022/04/06 05:45:42;;;;;;;9.63;8.80;;;11.40;99.90;;;;;;6158104;23;20391;-83
2022/04/06 05:48:10;;;;;;;12.17;7.30;;;11.50;99.90;;;;;;6158390;23;20877;-83
2022/04/06 05:50:38;;;;;;;7.97;7.07;;;11.50;99.90;;;;;;6158104;23;20399;-82
2022/04/06 05:53:04;;;;;;;8.20;6.77;;;11.50;99.90;;;;;;6166551;23;20414;-82
2022/04/06 05:55:32;;;;;;;8.07;7.27;;;11.50;99.90;;;;;;6170727;23;20749;-82
2022/04/06 05:57:59;;;;;;;8.10;7.30;;;11.60;99.90;;;;;;6159188;23;20405;-82
2022/04/06 06:00:26;;;;;;;7.87;7.00;;;11.60;99.90;;;;;;6158885;23;20407;-83
2022/04/06 06:02:53;;;;;;;9.30;7.50;;;11.60;99.90;;;;;;6162173;23;20696;-82
2022/04/06 06:05:20;;;;;;;8.77;7.70;;;11.60;99.90;;;;;;6161494;23;20425;-83
2022/04/06 06:07:47;;;;;;;9.00;8.10;;;11.60;99.90;;;;;;6159284;23;20395;-82
2022/04/06 06:10:14;;;;;;;9.20;8.30;;;11.60;99.90;;;;;;6159084;23;20411;-82
2022/04/06 06:12:42;;;;;;;9.27;8.20;;;11.70;99.90;;;;;;6173134;23;20438;-82
2022/04/06 06:15:09;;;;;;;8.77;7.97;;;11.70;99.90;;;;;;6179243;23;20406;-82
2022/04/06 06:17:39;;;;;;;9.23;8.43;;;11.80;99.90;;;;;;6168656;23;20410;-82
2022/04/06 06:20:07;;;;;;;8.40;7.70;;;11.90;99.90;;;;;;6171154;23;20745;-83
2022/04/06 06:22:34;;;;;;;8.70;8.00;;;11.90;99.90;;;;;;6159454;23;20434;-83
2022/04/06 06:25:01;;;;;;;10.90;7.67;;;11.90;99.90;;;;;;6161971;23;20460;-82
2022/04/06 06:27:27;;;;;;;7.93;6.93;;;11.90;99.90;;;;;;6163380;23;20410;-82
2022/04/06 06:29:56;;;;;;;7.40;6.80;;;11.90;99.90;;;;;;6175696;23;20407;-82
2022/04/06 06:32:22;;;;;;;10.23;8.20;;;11.90;99.90;;;;;;6169519;23;20427;-82
2022/04/06 06:34:49;;;;;;;8.07;7.43;;;11.90;99.90;;;;;;6163456;23;20410;-82
2022/04/06 06:37:16;;;;;;;7.77;7.07;;;12.00;99.90;;;;;;6164423;23;20403;-83
2022/04/06 06:39:42;;;;;;;9.43;7.70;;;12.10;99.90;;;;;;6166789;23;20410;-83
2022/04/06 06:42:10;;;;;;;9.40;8.07;;;12.10;99.90;;;;;;6165047;23;20434;-83
2022/04/06 06:44:37;;;;;;;10.83;7.50;;;12.10;99.90;;;;;;6166993;23;20446;-82
2022/04/06 06:47:05;;;;;;;10.67;9.63;;;12.20;99.90;;;;;;6159225;23;20414;-82
2022/04/06 06:49:32;;;;;;;8.60;7.13;;;12.20;99.90;;;;;;6158589;23;20417;-82
2022/04/06 06:51:59;;;;;;;11.00;8.80;;;12.20;99.90;;;;;;6158066;23;20423;-83
2022/04/06 06:54:25;;;;;;;10.40;8.70;;;12.20;99.90;;;;;;6159845;23;20450;-83
2022/04/06 06:56:52;;;;;;;9.93;7.50;;;12.30;99.90;;;;;;6167887;23;20473;-83
2022/04/06 06:59:19;;;;;;;7.27;6.57;;;12.30;99.90;;;;;;6164530;23;20893;-83
2022/04/06 07:01:45;;;;;;;8.40;7.30;;;12.30;99.90;;;;;;6158642;23;20491;-82
2022/04/06 07:04:14;;;;;;;6.93;6.23;;;12.30;99.90;;;;;;6161587;23;20446;-82
2022/04/06 07:06:40;;;;;;;8.87;7.00;;;12.30;99.90;;;;;;6177189;23;20409;-82
2022/04/06 07:09:07;;;;;;;7.50;5.40;;;12.30;99.90;;;;;;6159618;23;20413;-82
2022/04/06 07:11:34;;;;;;;7.40;6.07;;;12.30;99.90;;;;;;6169011;23;20431;-82
2022/04/06 07:14:00;;;;;;;6.60;6.00;;;12.30;99.90;;;;;;6179849;23;20425;-82
2022/04/06 07:16:27;;;;;;;6.80;6.10;;;12.30;99.90;;;;;;6168695;23;20405;-82
2022/04/06 07:18:54;;;;;;;7.20;6.50;;;12.50;99.90;;;;;;6180840;23;20411;-82
2022/04/06 07:21:22;;;;;;;6.57;5.97;;;12.60;99.90;;;;;;6182759;23;20439;-81
2022/04/06 07:23:49;;;;;;;5.53;5.03;;;12.60;99.90;;;;;;6180501;23;20414;-83
2022/04/06 07:26:16;;;;;;;6.73;5.47;;;12.70;99.90;;;;;;6177343;23;20408;-82
2022/04/06 07:28:44;;;;;;;6.00;5.20;;;12.80;99.90;;;;;;6165299;23;20473;-82
2022/04/06 07:31:11;;;;;;;6.40;5.20;;;12.90;99.90;;;;;;6160446;23;20453;-82
2022/04/06 07:33:39;;;;;;;4.50;4.20;;;12.90;99.90;;;;;;6160518;23;20404;-82
2022/04/06 07:36:07;;;;;;;7.47;4.73;;;12.80;99.90;;;;;;6159807;23;20421;-83
2022/04/06 07:38:35;;;;;;;5.90;4.73;;;12.70;99.90;;;;;;6158544;23;20413;-82
2022/04/06 07:41:01;;;;;;;5.77;4.47;;;12.70;99.90;;;;;;6156754;23;20442;-84
2022/04/06 07:43:28;;;;;;;4.20;3.90;;;12.70;99.90;;;;;;6157796;23;20791;-83
2022/04/06 07:45:55;;;;;;;7.13;3.60;;;12.80;99.90;;;;;;6158946;23;20893;-82
2022/04/06 07:48:22;;;;;;;6.50;3.93;;;12.80;99.90;;;;;;6159233;23;20403;-83
2022/04/06 07:50:49;;;;;;;6.37;3.40;;;12.90;99.90;;;;;;6157583;23;20445;-83
2022/04/06 07:53:17;;;;;;;4.20;3.53;;;13.00;99.90;;;;;;6158668;23;20410;-82
2022/04/06 07:55:46;;;;;;;3.30;3.03;;;12.90;99.90;;;;;;6157970;23;20409;-83
2022/04/06 07:58:13;;;;;;;3.17;2.87;;;12.90;99.90;;;;;;6157727;23;20413;-83
2022/04/06 08:00:40;;;;;;;3.90;3.13;;;12.90;99.90;;;;;;6158103;23;20407;-81
2022/04/06 08:03:07;;;;;;;3.67;3.37;;;13.00;99.90;;;;;;6157627;23;20882;-82
2022/04/06 08:05:35;;;;;;;6.50;3.87;;;13.00;99.90;;;;;;6156201;23;20975;-82
2022/04/06 08:08:02;;;;;;;4.03;3.30;;;13.10;99.90;;;;;;6156913;23;20411;-82
2022/04/06 08:10:30;;;;;;;4.17;2.80;;;13.20;99.90;;;;;;6160876;23;20422;-82
2022/04/06 08:12:58;;;;;;;3.53;2.57;;;13.50;99.90;;;;;;6156283;23;20987;-82
2022/04/06 08:15:25;;;;;;;2.60;2.40;;;13.70;99.90;;;;;;6156544;23;20744;-82
2022/04/06 08:17:52;;;;;;;5.73;2.60;;;13.70;99.90;;;;;;6162578;23;20612;-82
2022/04/06 08:20:20;;;;;;;2.30;2.03;;;13.60;99.90;;;;;;6176786;23;20388;-83
2022/04/06 08:22:48;;;;;;;3.60;2.23;;;13.70;99.90;;;;;;6162097;23;20440;-83
2022/04/06 08:25:16;;;;;;;2.30;1.90;;;13.90;99.20;;;;;;6164437;23;20511;-83
2022/04/06 08:27:43;;;;;;;2.27;1.90;;;13.80;98.70;;;;;;6173858;23;20410;-83
2022/04/06 08:30:30;;;;;;;3.73;2.07;;;13.70;98.70;;;;;;6178389;23;20467;-83
2022/04/06 08:32:58;;;;;;;2.40;1.60;;;13.80;98.60;;;;;;6182508;23;20418;-81
2022/04/06 08:35:25;;;;;;;2.57;2.37;;;14.20;98.50;;;;;;6173395;23;20416;-82
2022/04/06 08:37:52;;;;;;;1.73;1.63;;;14.50;97.50;;;;;;6166270;23;20403;-83
2022/04/06 08:40:19;;;;;;;1.60;1.50;;;14.70;97.70;;;;;;6165102;23;20736;-83
2022/04/06 08:42:47;;;;;;;1.70;1.60;;;15.00;96.20;;;;;;6166863;23;20465;-83
2022/04/06 08:45:16;;;;;;;2.10;1.70;;;15.00;96.30;;;;;;6166036;23;20438;-83
2022/04/06 08:47:47;;;;;;;2.23;2.03;;;14.70;95.60;;;;;;6160658;23;20439;-83
2022/04/06 08:50:14;;;;;;;1.40;1.20;;;15.20;95.90;;;;;;6166110;23;20411;-83
2022/04/06 08:52:45;;;;;;;2.60;1.63;;;15.30;95.00;;;;;;6169164;23;20413;-87
2022/04/06 08:55:12;;;;;;;2.17;1.20;;;15.10;94.80;;;;;;6163941;23;20396;-77
2022/04/06 08:57:39;;;;;;;1.97;1.40;;;14.70;94.50;;;;;;6162530;23;20411;-77
2022/04/06 09:00:07;;;;;;;2.10;1.23;;;14.30;94.30;;;;;;6163395;23;20406;-78
2022/04/06 09:02:35;;;;;;;3.03;1.57;;;14.40;94.90;;;;;;6135010;23;20442;-77
2022/04/06 09:05:04;;;;;;;1.60;1.27;;;14.40;94.50;;;;;;6161530;23;20752;-77
2022/04/06 09:07:32;;;;;;;1.33;1.23;;;14.90;94.90;;;;;;6158901;23;20697;-83
2022/04/06 09:10:00;;;;;;;2.50;1.17;;;15.30;93.90;;;;;;6159448;23;20414;-84
2022/04/06 09:12:26;;;;;;;2.50;1.13;;;15.60;94.00;;;;;;6158485;23;20505;-83
2022/04/06 09:15:05;;;;;;;2.50;1.00;;;15.40;92.50;;;;;;6172540;23;20407;-84
2022/04/06 09:17:32;;;;;;;0.80;0.70;;;15.40;92.50;;;;;;6179713;23;20367;-83
2022/04/06 09:19:59;;;;;;;1.13;1.03;;;15.10;91.60;;;;;;6165284;23;20405;-83
2022/04/06 09:22:29;;;;;;;1.03;0.87;;;14.80;92.20;;;;;;6158662;23;20469;-83
2022/04/06 09:24:58;;;;;;;1.53;0.80;;;14.70;92.30;;;;;;6158102;23;20465;-82
2022/04/06 09:27:30;;;;;;;1.50;0.83;;;14.70;91.90;;;;;;6159370;23;20412;-84
2022/04/06 09:29:56;;;;;;;1.63;0.70;;;14.90;92.20;;;;;;6179415;23;20400;-84
2022/04/06 09:32:23;;;;;;;2.30;0.70;;;15.60;92.40;;;;;;6176049;23;20444;-84
2022/04/06 09:34:50;;;;;;;1.30;1.00;;;15.90;90.30;;;;;;6171900;23;20401;-84
2022/04/06 09:37:24;;;;;;;1.63;1.07;;;16.90;89.20;;;;;;6179972;23;20413;-83
2022/04/06 09:39:53;;;;;;;2.10;1.20;;;17.10;88.40;;;;;;6178534;23;20409;-85
2022/04/06 09:42:22;;;;;;;2.20;1.37;;;18.30;87.50;;;;;;6179809;23;20433;-84
2022/04/06 09:47:42;;;;;;;2.20;0.70;;;19.00;77.00;;;;;;6180991;23;20383;-84
2022/04/06 09:50:15;;;;;;;1.50;1.03;;;17.90;76.30;;;;;;6178928;23;20384;-85
2022/04/06 09:52:42;;;;;;;0.70;0.50;;;16.70;78.80;;;;;;6183238;23;20410;-84
2022/04/06 09:55:12;;;;;;;0.90;0.70;;;16.50;79.20;;;;;;6178504;23;20406;-85
2022/04/06 09:57:45;;;;;;;1.00;0.70;;;17.10;81.20;;;;;;6161307;23;20403;-84
2022/04/06 10:00:16;;;;;;;1.30;0.80;;;16.00;79.50;;;;;;6158163;23;20394;-84
2022/04/06 10:02:44;;;;;;;1.03;0.90;;;15.80;82.80;;;;;;6159457;23;20438;-86
2022/04/06 10:05:13;;;;;;;0.90;0.63;;;16.10;84.00;;;;;;6171461;23;20438;-85
2022/04/06 10:07:41;;;;;;;1.63;0.70;;;16.40;82.50;;;;;;6171704;23;20414;-85
2022/04/06 10:10:12;;;;;;;0.97;0.80;;;16.30;80.90;;;;;;6161476;23;20402;-85
2022/04/06 10:12:40;;;;;;;1.03;0.70;;;16.10;81.40;;;;;;6160358;23;20411;-84
2022/04/06 10:15:08;;;;;;;1.80;1.00;;;16.00;81.90;;;;;;6159534;23;20904;-84
2022/04/06 10:17:36;;;;;;;0.80;0.80;;;16.00;83.00;;;;;;6164631;23;20466;-85
2022/04/06 10:20:26;;;;;;;1.07;0.70;;;15.90;82.00;;;;;;6163555;23;20409;-83
2022/04/06 10:23:02;;;;;;;1.10;0.67;;;16.00;81.80;;;;;;6155003;23;20473;-84
2022/04/06 10:25:41;;;;;;;0.70;0.53;;;16.30;81.30;;;;;;6157779;23;20422;-84
2022/04/06 10:28:12;;;;;;;1.30;0.70;;;16.80;79.80;;;;;;6157645;23;20406;-84
2022/04/06 10:30:39;;;;;;;1.07;0.60;;;17.20;79.30;;;;;;6157719;23;20396;-84
2022/04/06 10:33:20;;;;;;;1.00;0.83;;;17.00;79.00;;;;;;6157357;23;20903;-84
2022/04/06 10:35:47;;;;;;;1.60;1.20;;;17.00;80.60;;;;;;6157720;23;20404;-83
2022/04/06 10:38:20;;;;;;;1.67;1.17;;;18.30;80.20;;;;;;6159305;23;20417;-84
2022/04/06 10:40:59;;;;;;;1.80;1.30;;;19.80;75.20;;;;;;6162316;23;20395;-83
2022/04/06 10:43:50;;;;;;;1.40;1.00;;;20.90;70.50;;;;;;6164776;23;20421;-85
2022/04/06 10:46:18;;;;;;;0.97;0.70;;;20.70;67.40;;;;;;6164769;23;20810;-85
2022/04/06 10:48:58;;;;;;;0.80;0.60;;;21.60;64.20;;;;;;6173321;23;20408;-85
2022/04/06 10:51:30;;;;;;;2.67;1.30;;;21.70;63.30;;;;;;6177625;23;20434;-85
2022/04/06 10:53:57;;;;;;;4.23;3.60;;;21.90;62.00;;;;;;6171111;23;20414;-84
2022/04/06 10:56:25;;;;;;;1.93;1.30;;;22.10;59.80;;;;;;6165892;23;20402;-84
2022/04/06 10:59:09;;;;;;;1.00;0.63;;;22.10;59.60;;;;;;6168069;23;20408;-85
2022/04/06 11:01:36;;;;;;;2.20;0.70;;;21.30;58.10;;;;;;6167128;23;20529;-84
2022/04/06 11:04:04;;;;;;;1.00;0.60;;;22.10;59.80;;;;;;6168370;23;20405;-83
2022/04/06 11:06:53;;;;;;;4.50;0.70;;;23.20;58.30;;;;;;6165891;23;20444;-86
2022/04/06 11:12:13;;;;;;;2.40;1.83;;;24.50;52.90;;;;;;6165090;23;20417;-85
2022/04/06 11:14:41;;;;;;;3.53;2.07;;;24.60;52.60;;;;;;6165231;23;20430;-85
2022/04/06 11:17:38;;;;;;;4.27;2.30;;;25.70;52.70;;;;;;6163629;23;20407;-85
2022/04/06 11:20:08;;;;;;;5.23;2.50;;;28.00;49.70;;;;;;6163215;23;20465;-85
2022/04/06 11:22:35;;;;;;;3.70;2.93;;;29.00;46.10;;;;;;6164599;23;20506;-83
2022/04/06 11:25:02;;;;;;;1.00;0.80;;;28.10;45.20;;;;;;6166137;23;20506;-86
2022/04/06 11:27:41;;;;;;;1.17;0.53;;;26.50;46.90;;;;;;6167063;23;20434;-86
2022/04/06 11:30:12;;;;;;;1.00;0.67;;;25.10;47.90;;;;;;6166130;23;20478;-85
2022/04/06 11:32:39;;;;;;;4.00;0.80;;;24.60;49.20;;;;;;6165559;23;20434;-85
2022/04/06 11:35:08;;;;;;;0.80;0.50;;;23.90;50.00;;;;;;6169273;23;20438;-86
2022/04/06 11:37:41;;;;;;;3.03;0.87;;;23.70;50.30;;;;;;6169708;23;20424;-85
2022/04/06 11:40:10;;;;;;;3.93;0.97;;;23.30;50.40;;;;;;6163290;23;20429;-86
2022/04/06 11:42:39;;;;;;;1.60;0.83;;;24.00;51.50;;;;;;6163768;23;21056;-85
2022/04/06 11:45:07;;;;;;;1.17;0.60;;;23.90;50.10;;;;;;6161849;23;20899;-85
2022/04/06 11:47:36;;;;;;;2.40;0.70;;;23.70;50.60;;;;;;6163569;23;20745;-85
2022/04/06 11:50:06;;;;;;;1.00;0.87;;;23.70;50.50;;;;;;6171513;23;20405;-85
2022/04/06 11:52:34;;;;;;;0.93;0.80;;;23.90;50.90;;;;;;6181021;23;20441;-85
2022/04/06 11:55:03;;;;;;;0.87;0.63;;;24.00;51.60;;;;;;6168587;23;20452;-85
2022/04/06 11:57:35;;;;;;;1.70;0.80;;;25.00;51.10;;;;;;6172251;23;20406;-84
2022/04/06 12:00:05;;;;;;;1.00;0.63;;;26.20;48.50;;;;;;6171824;23;20465;-85
2022/04/06 12:02:50;;;;;;;1.10;0.90;;;28.30;46.60;;;;;;6165631;23;20434;-84
2022/04/06 12:05:17;;;;;;;1.50;0.90;;;26.20;44.10;;;;;;6163812;23;20383;-88
2022/04/06 12:07:45;;;;;;;1.20;1.00;;;26.30;46.20;;;;;;6165006;23;20407;-85
2022/04/06 12:10:12;;;;;;;0.90;0.70;;;27.70;44.90;;;;;;6164138;23;20395;-84
2022/04/06 12:12:39;;;;;;;1.60;1.10;;;28.30;42.90;;;;;;6162944;23;20419;-85
2022/04/06 12:15:09;;;;;;;1.77;1.03;;;26.30;43.50;;;;;;6158584;23;20434;-83
2022/04/06 12:17:38;;;;;;;1.50;1.00;;;23.40;47.70;;;;;;6158528;23;20430;-83
2022/04/06 12:20:23;;;;;;;1.40;1.00;;;23.00;51.20;;;;;;6156527;23;20872;-84
2022/04/06 12:23:01;;;;;;;2.50;1.90;;;24.60;50.10;;;;;;6168833;23;20499;-83
2022/04/06 12:25:28;;;;;;;3.03;1.37;;;26.40;46.00;;;;;;6169238;23;20409;-84
2022/04/06 12:28:13;;;;;;;1.30;0.83;;;23.40;46.00;;;;;;6162418;23;20384;-85
2022/04/06 12:30:58;;;;;;;2.00;1.73;;;21.90;50.90;;;;;;6156955;23;20415;-84
2022/04/06 12:33:40;;;;;;;3.10;1.27;;;24.20;50.10;;;;;;6170516;23;20402;-85
2022/04/06 12:36:09;;;;;;;1.17;1.00;;;25.40;45.90;;;;;;6183359;23;20446;-85
2022/04/06 12:38:36;;;;;;;1.70;1.20;;;24.50;45.70;;;;;;6182543;23;20489;-84
2022/04/06 12:41:07;;;;;;;4.10;1.50;;;23.50;47.60;;;;;;6173318;23;20746;-85
2022/04/06 12:43:37;;;;;;;1.80;0.90;;;23.80;48.60;;;;;;6157640;23;20390;-85
2022/04/06 12:46:05;;;;;;;0.77;0.63;;;24.80;46.70;;;;;;6166686;23;20391;-84
2022/04/06 12:48:32;;;;;;;1.20;0.90;;;24.20;48.00;;;;;;6162522;23;20449;-85
2022/04/06 12:50:59;;;;;;;1.20;0.70;;;25.70;46.20;;;;;;6159878;23;20466;-84
2022/04/06 12:53:26;;;;;;;0.80;0.40;;;27.10;44.00;;;;;;6156093;23;20423;-85
2022/04/06 12:56:11;;;;;;;0.90;0.60;;;27.50;41.70;;;;;;6155525;23;20941;-85
2022/04/06 12:58:38;;;;;;;0.97;0.60;;;27.50;42.30;;;;;;6155585;23;20409;-85
2022/04/06 13:01:11;;;;;;;0.90;0.60;;;29.40;40.80;;;;;;6155179;23;20433;-85